Data for 12/26/2010

Time Sea-Level Adjusted Pressure Absolute Pressure Temperature Relative Humidity Dew Point   
(mb) (inHg) (mb) (inHg) (C) (F) (%) (C) (F)
00:05 1012 29.88 842 24.86 -0.3 31.5 54 -8.6 16.6
00:10 1012 29.88 842 24.86 -0.5 31.1 55 -8.5 16.6
00:15 1012 29.88 842 24.86 -0.7 30.8 53 -9 15.8
00:20 1012 29.88 841 24.83 -0.2 31.7 52 -8.8 16.1
00:25 1012 29.88 841 24.83 -0.2 31.7 52 -8.9 16
00:30 1012 29.88 841 24.83 -0.4 31.3 54 -8.6 16.5
00:35 1012 29.88 841 24.83 -0.1 31.9 53 -8.6 16.6
00:40 1012 29.88 841 24.83 -0.4 31.4 55 -8.4 16.9
00:45 1012 29.88 841 24.83 -0.7 30.7 56 -8.4 16.8
00:50 1012 29.88 841 24.83 -0.8 30.6 55 -8.8 16.1
00:55 1012 29.88 841 24.83 -0.6 30.8 56 -8.3 17
01:00 1012 29.88 841 24.83 -0.9 30.4 55 -8.8 16.2
01:05 1012 29.88 841 24.83 -1.1 30.1 58 -8.3 17.1
01:10 1012 29.88 841 24.83 -1.1 30 59 -8.2 17.2
01:15 1012 29.88 841 24.83 -0.8 30.6 54 -8.9 15.9
01:20 1012 29.88 841 24.83 -0.3 31.5 53 -8.6 16.4
01:25 1012 29.88 841 24.83 -0.6 31 55 -8.6 16.5
01:30 1011 29.85 841 24.83 -0.7 30.8 54 -8.7 16.3
01:35 1011 29.85 841 24.83 0.1 32.2 52 -8.5 16.6
01:40 1011 29.85 840 24.81 0.1 32.2 54 -8.1 17.5
01:45 1011 29.85 841 24.83 -0.6 30.9 56 -8.4 16.9
01:50 1011 29.85 840 24.81 -0.3 31.5 55 -8.2 17.2
01:55 1011 29.85 840 24.81 -0.4 31.3 54 -8.7 16.3
02:00 1011 29.85 840 24.81 -0.5 31.1 53 -8.9 16
02:05 1011 29.85 840 24.81 0.5 33 49 -8.9 15.9
02:10 1011 29.85 840 24.81 0.3 32.6 49 -9.3 15.3
02:15 1011 29.85 840 24.81 0.5 32.9 50 -8.7 16.4
02:20 1011 29.85 840 24.81 -0.2 31.6 51 -9.1 15.6
02:25 1011 29.85 840 24.81 0.9 33.7 46 -9.5 14.8
02:30 1011 29.85 840 24.81 2.2 36 41 -9.9 14.2
02:35 1011 29.85 840 24.81 2.6 36.6 43 -8.9 16.1
02:40 1011 29.85 840 24.81 2 35.5 49 -7.6 18.4
02:45 1011 29.85 840 24.81 1.1 34 45 -9.5 14.9
02:50 1011 29.85 840 24.81 1.9 35.4 47 -8.2 17.3
02:55 1011 29.85 840 24.81 1 33.8 54 -7.3 18.9
03:00 1011 29.85 840 24.81 -0.2 31.7 58 -7.4 18.6
03:05 1011 29.85 840 24.81 -0.5 31.1 58 -7.8 17.9
03:10 1011 29.85 840 24.81 -0.9 30.4 58 -8.1 17.3
03:15 1011 29.85 840 24.81 -0.6 30.9 57 -8.1 17.4
03:20 1011 29.85 840 24.81 -0.7 30.7 58 -8.1 17.5
03:25 1011 29.85 840 24.81 -0.7 30.8 57 -8.1 17.4
03:30 1010 29.83 840 24.81 -0.4 31.3 51 -9.4 15
03:35 1010 29.83 840 24.81 0.1 32.1 55 -8 17.7
03:40 1010 29.83 840 24.81 -0.7 30.8 58 -8 17.7
03:45 1010 29.83 839 24.78 -0.6 31 53 -9.1 15.6
03:50 1010 29.83 839 24.78 -0.5 31.1 54 -8.6 16.5
03:55 1010 29.83 839 24.78 -0.4 31.3 50 -9.5 14.9
04:00 1010 29.83 839 24.78 0.3 32.5 46 -9.9 14.2
04:05 1010 29.83 839 24.78 1 33.9 44 -10 14
04:10 1010 29.83 839 24.78 1.5 34.7 46 -9 15.8
04:15 1010 29.83 839 24.78 1.7 35 45 -9 15.8
04:20 1010 29.83 839 24.78 1.9 35.5 39 -10.7 12.8
04:25 1010 29.83 839 24.78 3.1 37.6 42 -8.5 16.6
04:30 1010 29.83 839 24.78 3 37.5 39 -9.6 14.7
04:35 1010 29.83 839 24.78 2 35.7 38 -10.7 12.8
04:40 1010 29.83 839 24.78 3.2 37.8 36 -10.5 13.2
04:45 1010 29.83 839 24.78 2.9 37.2 42 -8.8 16.1
04:50 1010 29.83 839 24.78 2.3 36.1 41 -9.8 14.3
04:55 1009 29.8 839 24.78 3 37.5 40 -9.3 15.3
05:00 1009 29.8 839 24.78 3.4 38.2 33 -11.2 11.8
05:05 1009 29.8 839 24.78 4 39.3 35 -10.3 13.5
05:10 1009 29.8 838 24.75 4.3 39.7 32 -11.1 11.9
05:15 1009 29.8 839 24.78 4.5 40.1 31 -11.2 11.9
05:20 1009 29.8 839 24.78 4.5 40.1 32 -10.9 12.4
05:25 1009 29.8 838 24.75 4.8 40.7 29 -12 10.5
05:30 1009 29.8 838 24.75 5.1 41.2 30 -11.3 11.7
05:35 1009 29.8 838 24.75 5 41.1 34 -9.4 15.1
05:40 1009 29.8 838 24.75 4.6 40.2 29 -12.1 10.1
05:45 1009 29.8 838 24.75 5.7 42.3 30 -10.4 13.3
05:50 1009 29.8 838 24.75 4.6 40.3 29 -12 10.3
05:55 1009 29.8 838 24.75 5.3 41.5 32 -10 14
06:00 1009 29.8 838 24.75 4.3 39.7 31 -11.5 11.2
06:05 1009 29.8 838 24.75 5 41 32 -10.6 13
06:10 1009 29.8 838 24.75 4.7 40.5 30 -11.3 11.6
06:15 1009 29.8 838 24.75 5 41 34 -9.6 14.6
06:20 1009 29.8 838 24.75 3.9 39.1 35 -10.3 13.5
06:25 1009 29.8 838 24.75 4 39.2 33 -10.8 12.5
06:30 1009 29.8 838 24.75 3.7 38.7 35 -10.6 13
06:35 1009 29.8 838 24.75 3.7 38.7 28 -13.4 7.9
06:40 1009 29.8 838 24.75 5.6 42.1 33 -9.5 15
06:45 1009 29.8 838 24.75 4.1 39.5 31 -11.4 11.5
06:50 1009 29.8 838 24.75 4.4 40 32 -11 12.2
06:55 1009 29.8 838 24.75 4.5 40.1 35 -9.7 14.5
07:00 1009 29.8 838 24.75 3.2 37.8 41 -8.9 15.9
07:05 1009 29.8 838 24.75 3.1 37.6 40 -9.4 15.2
07:10 1009 29.8 838 24.75 3 37.3 40 -9.3 15.2
07:15 1009 29.8 838 24.75 2.1 35.7 40 -10.3 13.5
07:20 1009 29.8 838 24.75 2.6 36.6 39 -10.2 13.7
07:25 1009 29.8 838 24.75 3.8 38.8 32 -11.6 11.2
07:30 1009 29.8 838 24.75 3.8 38.8 36 -9.9 14.2
07:35 1009 29.8 838 24.75 3.5 38.3 36 -10.2 13.6
07:40 1009 29.8 838 24.75 3.1 37.6 33 -11.8 10.8
07:45 1009 29.8 838 24.75 4 39.2 33 -10.8 12.5
07:50 1009 29.8 838 24.75 5.1 41.1 30 -11.3 11.6
07:55 1009 29.8 838 24.75 3.9 38.9 30 -12.1 10.2
08:00 1009 29.8 838 24.75 4.4 40 31 -11.2 11.8
08:05 1009 29.8 838 24.75 4.3 39.7 29 -12.4 9.6
08:10 1009 29.8 838 24.75 5.3 41.5 28 -12 10.4
08:15 1009 29.8 838 24.75 6.1 42.9 24 -13.3 8.1
08:20 1009 29.8 838 24.75 6.2 43.2 26 -11.9 10.5
08:25 1009 29.8 838 24.75 5.8 42.4 25 -12.6 9.3
08:30 1009 29.8 839 24.78 6.3 43.3 26 -12.1 10.2
08:35 1009 29.8 839 24.78 6.3 43.3 29 -10.7 12.8
08:40 1009 29.8 839 24.78 5.7 42.2 24 -13.5 7.7
08:45 1009 29.8 839 24.78 7.8 46.1 22 -12.5 9.6
08:50 1010 29.83 839 24.78 8.1 46.6 25 -10.9 12.5
08:55 1010 29.83 839 24.78 7.8 46 22 -12.7 9.2
09:00 1010 29.83 839 24.78 7.7 45.9 26 -10.5 13.1
09:05 1010 29.83 839 24.78 7.6 45.6 22 -12.6 9.3
09:10 1010 29.83 839 24.78 8.2 46.7 24 -11.4 11.5
09:15 1010 29.83 839 24.78 8.3 46.9 23 -11.6 11.1
09:20 1010 29.83 839 24.78 9 48.3 21 -12.1 10.2
09:25 1010 29.83 839 24.78 9.8 49.6 21 -11.6 11.1
09:30 1010 29.83 839 24.78 9.8 49.6 22 -10.9 12.3
09:35 1010 29.83 839 24.78 9.6 49.4 23 -10.3 13.5
09:40 1010 29.83 839 24.78 9.7 49.4 23 -10.7 12.7
09:45 1010 29.83 839 24.78 9.7 49.5 24 -9.9 14.3
09:50 1010 29.83 839 24.78 9.4 48.9 26 -9.4 15.1
09:55 1010 29.83 839 24.78 9.3 48.8 27 -8.9 16
10:00 1010 29.83 839 24.78 9.7 49.5 24 -9.7 14.5
10:05 1010 29.83 839 24.78 9.6 49.4 25 -9.6 14.8
10:10 1010 29.83 839 24.78 10 49.9 25 -9.4 15.2
10:15 1010 29.83 839 24.78 10.2 50.3 25 -8.8 16.1
10:20 1010 29.83 839 24.78 10 49.9 27 -8.3 17.1
10:25 1010 29.83 839 24.78 9.8 49.7 26 -8.9 16
10:30 1010 29.83 839 24.78 10.1 50.2 25 -8.8 16.1
10:35 1010 29.83 839 24.78 10.3 50.5 24 -9.3 15.3
10:40 1010 29.83 839 24.78 10.2 50.4 24 -9.6 14.7
10:45 1010 29.83 839 24.78 9.7 49.5 24 -10.1 13.9
10:50 1010 29.83 839 24.78 9.9 49.8 24 -9.6 14.7
10:55 1010 29.83 839 24.78 10.1 50.2 25 -9.1 15.6
11:00 1010 29.83 839 24.78 10 50.1 26 -8.8 16.2
11:05 1010 29.83 839 24.78 10.1 50.2 28 -7.7 18.1
11:10 1010 29.83 839 24.78 9.4 48.8 30 -7.4 18.7
11:15 1010 29.83 839 24.78 8.8 47.8 30 -7.9 17.8
11:20 1010 29.83 839 24.78 8.6 47.5 29 -8.2 17.2
11:25 1010 29.83 839 24.78 8.6 47.4 30 -7.9 17.8
11:30 1010 29.83 839 24.78 8.7 47.6 31 -7.6 18.3
11:35 1010 29.83 839 24.78 8.3 46.9 33 -7.1 19.3
11:40 1010 29.83 839 24.78 8.2 46.8 33 -7.3 18.9
11:45 1010 29.83 839 24.78 8.4 47 32 -7.2 19.1
11:50 1010 29.83 839 24.78 8.2 46.7 36 -6.2 20.9
11:55 1010 29.83 839 24.78 7.9 46.1 36 -6.4 20.5
12:00 1010 29.83 839 24.78 7.7 45.8 34 -7.2 19.1
12:05 1010 29.83 839 24.78 7.7 45.8 33 -7.6 18.4
12:10 1010 29.83 839 24.78 8.1 46.6 32 -7.8 18
12:15 1010 29.83 839 24.78 8.4 47.1 32 -7.2 19
12:20 1010 29.83 839 24.78 8.3 47 33 -7.2 19.1
12:25 1010 29.83 839 24.78 8.5 47.3 32 -7.4 18.7
12:30 1010 29.83 839 24.78 8.5 47.3 32 -7.3 18.9
12:35 1010 29.83 839 24.78 8.6 47.4 32 -7.4 18.7
12:40 1010 29.83 839 24.78 8.9 48.1 32 -6.8 19.7
12:45 1010 29.83 839 24.78 7.5 45.5 33 -7.9 17.8
12:50 1010 29.83 839 24.78 7.2 45 33 -8.1 17.5
12:55 1010 29.83 839 24.78 7.2 45 33 -7.9 17.8
13:00 1010 29.83 839 24.78 7.4 45.3 34 -7.6 18.3
13:05 1010 29.83 839 24.78 7.6 45.7 34 -7.2 19
13:10 1010 29.83 839 24.78 8.1 46.5 33 -7.3 18.8
13:15 1010 29.83 839 24.78 7.6 45.7 33 -7.6 18.3
13:20 1010 29.83 839 24.78 6.6 44 36 -7.5 18.5
13:25 1010 29.83 839 24.78 6.1 43.1 36 -7.9 17.7
13:30 1010 29.83 839 24.78 6.4 43.6 34 -8.2 17.3
13:35 1010 29.83 839 24.78 7.3 45.1 33 -8 17.6
13:40 1010 29.83 839 24.78 7.2 44.9 35 -7.3 18.8
13:45 1010 29.83 839 24.78 6.9 44.5 37 -6.8 19.7
13:50 1010 29.83 839 24.78 6.7 44 37 -7 19.3
13:55 1010 29.83 839 24.78 6.4 43.6 38 -6.8 19.7
14:00 1010 29.83 839 24.78 6.7 44.1 39 -6.3 20.6
14:05 1010 29.83 839 24.78 6.4 43.4 43 -5.2 22.7
14:10 1010 29.83 839 24.78 6.2 43.2 46 -4.5 23.9
14:15 1010 29.83 839 24.78 6 42.8 44 -5.2 22.6
14:20 1010 29.83 839 24.78 5.6 42.1 45 -5.5 22.1
14:25 1010 29.83 839 24.78 5.2 41.3 50 -4.5 23.9
14:30 1010 29.83 839 24.78 4.7 40.5 53 -4 24.8
14:35 1010 29.83 839 24.78 4.5 40.1 55 -3.9 25
14:40 1010 29.83 839 24.78 4.4 40 54 -4.2 24.4
14:45 1010 29.83 839 24.78 4.7 40.4 52 -4.4 24.1
14:50 1010 29.83 839 24.78 5.3 41.6 50 -4.2 24.4
14:55 1010 29.83 839 24.78 5.8 42.4 49 -4 24.7
15:00 1010 29.83 839 24.78 6 42.8 49 -3.8 25.2
15:05 1010 29.83 839 24.78 5.9 42.7 51 -3.4 25.9
15:10 1010 29.83 840 24.81 5.7 42.3 49 -4.1 24.7
15:15 1011 29.85 840 24.81 5.4 41.6 51 -3.9 25
15:20 1011 29.85 840 24.81 5.2 41.3 51 -4.1 24.7
15:25 1011 29.85 840 24.81 5 41.1 53 -3.9 25
15:30 1011 29.85 840 24.81 5.2 41.4 53 -3.5 25.6
15:35 1011 29.85 840 24.81 5.4 41.8 54 -3.1 26.5
15:40 1011 29.85 840 24.81 5.3 41.5 54 -3.1 26.3
15:45 1011 29.85 840 24.81 5.3 41.5 55 -3 26.7
15:50 1011 29.85 840 24.81 5 41 58 -2.6 27.3
15:55 1011 29.85 840 24.81 4.7 40.5 59 -2.6 27.4
16:00 1011 29.85 840 24.81 4.6 40.3 61 -2.3 27.9
16:05 1011 29.85 840 24.81 4.4 39.9 62 -2.3 27.9
16:10 1011 29.85 840 24.81 4.4 39.9 61 -2.5 27.5
16:15 1011 29.85 840 24.81 4.4 39.9 62 -2.3 27.8
16:20 1011 29.85 840 24.81 4.2 39.6 63 -2.3 27.9
16:25 1011 29.85 840 24.81 4.1 39.4 62 -2.6 27.3
16:30 1011 29.85 840 24.81 4.2 39.5 60 -2.8 26.9
16:35 1011 29.85 840 24.81 4.2 39.6 60 -2.8 27
16:40 1011 29.85 840 24.81 4.2 39.6 61 -2.7 27.1
16:45 1011 29.85 840 24.81 4.1 39.4 61 -2.7 27.1
16:50 1011 29.85 840 24.81 4.1 39.3 61 -2.8 27
16:55 1011 29.85 840 24.81 4 39.2 63 -2.4 27.6
17:00 1011 29.85 840 24.81 3.8 38.9 62 -2.7 27.1
17:05 1011 29.85 840 24.81 3.8 38.9 62 -2.9 26.8
17:10 1011 29.85 840 24.81 3.9 39 62 -2.8 26.9
17:15 1011 29.85 840 24.81 3.9 39 62 -2.7 27.1
17:20 1011 29.85 840 24.81 3.8 38.9 61 -3.1 26.4
17:25 1011 29.85 840 24.81 3.9 39.1 59 -3.4 26
17:30 1011 29.85 840 24.81 4 39.2 58 -3.5 25.7
17:35 1011 29.85 840 24.81 3.9 39 60 -3.3 26.1
17:40 1011 29.85 840 24.81 3.9 39 59 -3.3 26
17:45 1011 29.85 841 24.83 3.8 38.8 61 -3 26.7
17:50 1011 29.85 841 24.83 3.6 38.5 62 -2.9 26.7
17:55 1011 29.85 841 24.83 3.5 38.3 64 -2.6 27.3
18:00 1011 29.85 841 24.83 3.5 38.2 62 -3.2 26.2
18:05 1012 29.88 841 24.83 3.4 38.1 63 -2.9 26.8
18:10 1012 29.88 841 24.83 3.1 37.6 64 -3 26.6
18:15 1012 29.88 841 24.83 3 37.3 64 -3.1 26.4
18:20 1012 29.88 841 24.83 2.9 37.2 61 -3.8 25.1
18:25 1012 29.88 841 24.83 2.9 37.2 62 -3.6 25.5
18:30 1012 29.88 841 24.83 2.7 36.9 64 -3.4 26
18:35 1012 29.88 841 24.83 2.6 36.6 68 -2.8 26.9
18:40 1012 29.88 841 24.83 2.4 36.3 70 -2.5 27.6
18:45 1012 29.88 841 24.83 2.3 36.1 72 -2.3 27.8
18:50 1012 29.88 841 24.83 2.2 35.9 73 -2.2 28
18:55 1012 29.88 841 24.83 2.2 36 70 -2.7 27.2
19:00 1012 29.88 842 24.86 2.2 35.9 71 -2.5 27.4
19:05 1012 29.88 842 24.86 2 35.5 72 -2.5 27.5
19:10 1012 29.88 841 24.83 1.9 35.3 71 -2.8 27
19:15 1012 29.88 841 24.83 1.7 35.1 72 -2.8 27
19:20 1012 29.88 841 24.83 1.7 35 69 -3.5 25.8
19:25 1012 29.88 841 24.83 1.9 35.5 63 -4.3 24.3
19:30 1012 29.88 841 24.83 2.2 36 59 -5.1 22.8
19:35 1012 29.88 841 24.83 2.4 36.4 56 -5.5 22.1
19:40 1012 29.88 842 24.86 2.5 36.6 55 -5.6 21.9
19:45 1012 29.88 842 24.86 2.6 36.6 54 -5.7 21.7
19:50 1012 29.88 842 24.86 2.5 36.5 56 -5.4 22.3
19:55 1012 29.88 842 24.86 2.4 36.3 58 -5 22.9
20:00 1013 29.91 842 24.86 2.3 36.1 59 -4.8 23.3
20:05 1013 29.91 842 24.86 2.2 36 59 -5 23
20:10 1013 29.91 842 24.86 2.2 35.9 60 -4.7 23.5
20:15 1013 29.91 842 24.86 2 35.7 61 -4.7 23.5
20:20 1013 29.91 842 24.86 2.1 35.7 59 -5.2 22.6
20:25 1013 29.91 842 24.86 2.3 36.1 56 -5.5 22
20:30 1013 29.91 842 24.86 2.4 36.4 56 -5.5 22.2
20:35 1013 29.91 842 24.86 2.4 36.3 56 -5.5 22.1
20:40 1013 29.91 842 24.86 2.3 36.2 57 -5.3 22.5
20:45 1013 29.91 842 24.86 2.1 35.9 57 -5.5 22.2
20:50 1013 29.91 842 24.86 2 35.6 57 -5.5 22.1
20:55 1013 29.91 842 24.86 1.9 35.4 57 -5.8 21.5
21:00 1013 29.91 842 24.86 1.9 35.5 54 -6.5 20.3
21:05 1013 29.91 842 24.86 2.4 36.3 48 -7.6 18.4
21:10 1013 29.91 842 24.86 2.8 37 48 -7.3 18.9
21:15 1013 29.91 842 24.86 2.6 36.7 50 -6.7 19.9
21:20 1013 29.91 842 24.86 2.2 36 52 -6.6 20.2
21:25 1013 29.91 842 24.86 2.1 35.8 49 -7.6 18.3
21:30 1013 29.91 842 24.86 2.3 36.1 47 -8 17.7
21:35 1013 29.91 842 24.86 2.4 36.4 45 -8.2 17.3
21:40 1013 29.91 842 24.86 2.1 35.7 47 -8.1 17.5
21:45 1013 29.91 842 24.86 2.1 35.8 45 -8.7 16.3
21:50 1013 29.91 842 24.86 2.4 36.3 44 -8.7 16.3
21:55 1013 29.91 842 24.86 2.4 36.3 46 -8.1 17.4
22:00 1013 29.91 842 24.86 2.1 35.9 47 -8.1 17.4
22:05 1013 29.91 842 24.86 2 35.7 46 -8.3 17
22:10 1013 29.91 842 24.86 2 35.6 46 -8.5 16.7
22:15 1013 29.91 842 24.86 1.9 35.4 45 -8.8 16.1
22:20 1013 29.91 842 24.86 1.6 34.9 47 -8.6 16.5
22:25 1013 29.91 842 24.86 1.2 34.1 48 -8.6 16.5
22:30 1013 29.91 842 24.86 1 33.8 47 -9 15.8
22:35 1013 29.91 842 24.86 1.1 33.9 46 -9.3 15.2
22:40 1013 29.91 842 24.86 1.2 34.2 45 -9.4 15.1
22:45 1013 29.91 842 24.86 1.2 34.2 46 -9.1 15.6
22:50 1013 29.91 842 24.86 1 33.9 46 -9.3 15.3
22:55 1013 29.91 842 24.86 1.1 33.9 44 -9.8 14.4
23:00 1013 29.91 842 24.86 1.3 34.3 44 -9.7 14.6
23:05 1013 29.91 842 24.86 1.3 34.4 44 -9.7 14.5
23:10 1013 29.91 842 24.86 1.5 34.7 45 -9.2 15.5
23:15 1013 29.91 842 24.86 1.3 34.4 46 -9.1 15.6
23:20 1013 29.91 842 24.86 1.3 34.3 46 -9.1 15.6
23:25 1013 29.91 842 24.86 1 33.8 49 -8.6 16.5
23:30 1013 29.91 842 24.86 0.4 32.7 51 -8.6 16.5
23:35 1013 29.91 842 24.86 0.8 33.4 46 -9.5 14.9
23:40 1013 29.91 843 24.89 1.4 34.6 45 -9.3 15.3
23:45 1013 29.91 843 24.89 1.5 34.7 46 -9 15.8
23:50 1013 29.91 843 24.89 1.3 34.4 46 -9.1 15.6
23:55 1013 29.91 843 24.89 1.3 34.4 46 -9 15.8
24:00 1013 29.91 843 24.89 1.1 34 47 -9.1 15.6